Portada
METAR-TAF:

METAR-TAF

Aeroports :

Makhatxkalà, Rússia

latitud: 42-49-01N, longitud: 047-39-08E, altitud: 4 m

Observació

L'informe es va fer fa 36 minuts, a les 00:00 UTC
Vent 6 kt del Sud
Temperatura 22°C
Humitat 78%
Pressió 1016 hPa
Visibilitat 10 km o més

METAR: URML 210000Z 18003MPS 9999 NSC 22/18 Q1016 R14/01//70 NOSIG RMK QFE762/1016

Hora: 03:36 (00:36 UTC)

Pronòstic

L'informe es va fer fa 1 hora i 36 minuts, a les 23:00 UTC
Pronòstic vàlid del 21 a les 00 UTC al 21 a les 09 UTC
Vent 6 kt del Oest amb ràfegues de 16 kt
Visibilitat 10 km o més
Núvols disperses a una alçada de 3000 ft
Temporalment
l' 21 a les 00 UTC al 21 a les 04 UTC
Vent 6 kt del Sud/Sud-Oest amb ràfegues de 16 kt
Evolucionant progressivament
l' 21 a les 04 UTC al 21 a les 08 UTC
Vent 10 kt del Sud-Est amb ràfegues de 19 kt

TAF: URML 202300Z 2100/2109 26003G08MPS 9999 SCT030 TEMPO 2100/2104 20003G08MPS BECMG 2104/2108 14005G10MPS

Observacions i pronòstics meteorològics de més de 4000 aeroports (METAR i TAF).

Les estacions disponibles són els punts grocs i vermells al mapa.

Posi el ratolí al punt desitjat per veure el nom de l'estació.

Feu clic per veure les observacions i els pronòstics meteorològics.

Per canviar el mapa: feu clic els botons verds amb una creu de color negre per apropar; al botó verd amb un guió per allunyar la imatge; o en les fletxes verdes per a mapes adjacents.


METAR-TAF: